»·PEaware :: N21JA KLAS-KPSP

N21JA :: KLAS-KPSP

FLIGHT INFORMATION

Flight Status: Arrived
Operator: Privately registered:
United States
More flights under this callsign
Pilot: Jose A. (18565)
Aircraft: GATES LEARJET LEARJET 25
(LJ25)
More flights by this aircraft type
Origin: KLAS McCarran Intl
United States
Destination: KPSP Palm Springs Intl
United States
More flights between these airports :: More routes between these airports
Route: +BOACH8 TNP CLOWD1
File this flight plan on PilotEdge
Remarks:
Altitude:
(Current/Filed)
16,000ft
Speed:
(Current/Filed)
440kts
Departed: 05-Oct-19 10:51 AM
Arrived: 05-Oct-19 11:28 AM
Distance/Time
Traveled:
151nm/0:37
Distance/Time
To Go:
Arrived

Flight Plot

Page will automatically refresh every two minutes.


Map Options




Map Legend


Flown Route
Filed Route
Departure Airport
Arrival Airport
Navaid (VOR, NDB)
Fix

Horizontal Profiles

Position Reports

Time Latitude Longitude Heading Altitude Ground
Speed
05-Oct-19 10:26 36.096635 -115.162237 269 2184ft 0kts
05-Oct-19 10:27 36.096635 -115.162237 269 2184ft 0kts
05-Oct-19 10:28 36.096635 -115.162237 269 2184ft 0kts
05-Oct-19 10:29 36.096635 -115.162237 269 2184ft 0kts
05-Oct-19 10:30 36.096635 -115.162237 269 2184ft 0kts
05-Oct-19 10:31 36.096635 -115.162237 269 2184ft 0kts
05-Oct-19 10:32 36.096635 -115.162237 269 2184ft 0kts
05-Oct-19 10:33 36.096635 -115.162237 269 2184ft 0kts
05-Oct-19 10:34 36.096635 -115.162237 269 2184ft 0kts
05-Oct-19 10:35 36.096635 -115.162237 269 2184ft 0kts
05-Oct-19 10:36 36.096635 -115.162237 269 2184ft 0kts
05-Oct-19 10:37 36.096635 -115.162237 269 2184ft 0kts
05-Oct-19 10:38 36.096635 -115.162237 269 2184ft 0kts
05-Oct-19 10:39 36.096635 -115.162237 269 2184ft 0kts
05-Oct-19 10:40 36.096635 -115.162237 269 2184ft 0kts
05-Oct-19 10:41 36.096635 -115.162237 269 2184ft 0kts
05-Oct-19 10:42 36.096634 -115.162247 269 2184ft 0kts
05-Oct-19 10:43 36.097199 -115.161989 55 2184ft 5kts
05-Oct-19 10:44 36.097680 -115.160393 61 2184ft 5kts
05-Oct-19 10:45 36.099244 -115.159092 26 2184ft 1kts
05-Oct-19 10:46 36.099714 -115.158006 69 2184ft 1kts
05-Oct-19 10:47 36.099832 -115.157539 87 2184ft 0kts
05-Oct-19 10:48 36.099832 -115.157538 87 2184ft 0kts
05-Oct-19 10:49 36.099278 -115.156692 186 2184ft 5kts
05-Oct-19 10:50 36.074846 -115.171026 208 2970ft 203kts
05-Oct-19 10:51 36.021893 -115.201445 209 5556ft 210kts
05-Oct-19 10:52 35.987528 -115.267214 238 7027ft 261kts
05-Oct-19 10:53 35.926998 -115.304480 178 8182ft 277kts
05-Oct-19 10:54 35.850466 -115.313481 178 9888ft 277kts
05-Oct-19 10:55 35.773002 -115.305406 177 11589ft 283kts
05-Oct-19 10:56 35.678465 -115.295094 181 13362ft 339kts
05-Oct-19 10:57 35.581944 -115.298437 184 15079ft 355kts
05-Oct-19 10:58 35.481207 -115.302387 184 16111ft 364kts
05-Oct-19 10:59 35.381229 -115.306297 184 15991ft 362kts
05-Oct-19 11:00 35.280306 -115.310263 184 15978ft 364kts
05-Oct-19 11:01 35.179178 -115.314235 184 15973ft 364kts
05-Oct-19 11:02 35.077835 -115.318205 184 15885ft 364kts
05-Oct-19 11:03 34.976251 -115.322195 184 15875ft 364kts
05-Oct-19 11:04 34.875078 -115.326137 184 15872ft 364kts
05-Oct-19 11:05 34.774297 -115.333598 200 15870ft 358kts
05-Oct-19 11:06 34.680920 -115.374990 201 15883ft 358kts
05-Oct-19 11:07 34.587152 -115.415724 201 16003ft 358kts
05-Oct-19 11:08 34.497476 -115.454793 201 16025ft 340kts
05-Oct-19 11:09 34.407796 -115.493826 201 16042ft 342kts
05-Oct-19 11:10 34.319760 -115.536256 220 16056ft 338kts
05-Oct-19 11:11 34.251160 -115.613850 224 16051ft 337kts
05-Oct-19 11:12 34.182415 -115.691036 224 16060ft 337kts
05-Oct-19 11:13 34.113284 -115.767972 220 16067ft 338kts
05-Oct-19 11:14 34.035449 -115.832072 215 16058ft 339kts
05-Oct-19 11:15 33.956990 -115.895424 215 16038ft 339kts
05-Oct-19 11:16 33.880020 -115.957641 215 15155ft 341kts
05-Oct-19 11:17 33.801693 -116.019813 212 13152ft 324kts
05-Oct-19 11:18 33.732225 -116.068428 210 11103ft 262kts
05-Oct-19 11:19 33.682295 -116.118528 264 9478ft 224kts
05-Oct-19 11:20 33.708833 -116.185316 301 7467ft 227kts
05-Oct-19 11:21 33.740911 -116.245968 301 5362ft 204kts
05-Oct-19 11:22 33.752341 -116.307593 263 3952ft 180kts
05-Oct-19 11:23 33.744633 -116.370963 259 3233ft 189kts
05-Oct-19 11:24 33.753804 -116.427892 303 2747ft 179kts
05-Oct-19 11:25 33.786500 -116.469025 324 1558ft 154kts
05-Oct-19 11:26 33.820670 -116.499708 321 527ft 122kts
05-Oct-19 11:27 33.830458 -116.507221 358 480ft 0kts
05-Oct-19 11:28 33.830459 -116.507221 358 480ft 0kts
05-Oct-19 11:29 33.828753 -116.505202 143 480ft 16kts
05-Oct-19 11:30 33.824747 -116.501647 144 480ft 19kts
05-Oct-19 11:31 33.820221 -116.497617 142 480ft 14kts
05-Oct-19 11:32 33.820726 -116.495648 326 480ft 9kts
05-Oct-19 11:33 33.821566 -116.496481 48 480ft 0kts

Navigation Log

Ident Type
Flight plan parsing failed, navigation log unavailable